createdAt,value
2023-01-28T00:01:33.860Z,7.10
2023-01-28T00:04:20.779Z,7.37
2023-01-28T00:07:07.698Z,6.97
2023-01-28T00:09:54.618Z,7.07
2023-01-28T00:12:42.137Z,6.43
2023-01-28T00:15:29.087Z,7.00
2023-01-28T00:18:16.020Z,6.23
2023-01-28T00:21:12.020Z,7.30
2023-01-28T00:23:59.068Z,6.07
2023-01-28T00:26:46.121Z,6.57
2023-01-28T00:29:33.349Z,6.60
2023-01-28T00:32:20.342Z,6.83
2023-01-28T00:35:07.973Z,6.30
2023-01-28T00:37:54.880Z,6.30
2023-01-28T00:40:41.815Z,5.97
2023-01-28T00:43:28.725Z,6.30
2023-01-28T00:46:16.344Z,5.57
2023-01-28T00:49:03.353Z,6.13
2023-01-28T00:51:50.352Z,5.73
2023-01-28T00:54:37.415Z,5.93
2023-01-28T00:57:24.413Z,6.20
2023-01-28T01:00:14.985Z,5.93
2023-01-28T01:03:02.106Z,6.00
2023-01-28T01:05:49.035Z,6.20
2023-01-28T01:08:39.904Z,6.10
2023-01-28T01:11:27.289Z,6.07
2023-01-28T01:14:14.222Z,6.27
2023-01-28T01:17:01.140Z,5.67
2023-01-28T01:19:48.109Z,5.70
2023-01-28T01:22:36.305Z,6.10
2023-01-28T01:25:23.400Z,6.23
2023-01-28T01:28:10.302Z,5.93
2023-01-28T01:31:06.907Z,5.67
2023-01-28T01:33:54.069Z,5.83
2023-01-28T01:36:44.172Z,5.90
2023-01-28T01:39:31.133Z,5.27
2023-01-28T01:42:19.016Z,5.13
2023-01-28T01:45:08.299Z,5.37
2023-01-28T01:48:19.097Z,5.20
2023-01-28T01:51:21.752Z,5.60
2023-01-28T01:54:08.941Z,5.47
2023-01-28T01:56:56.134Z,5.20
2023-01-28T01:59:44.213Z,4.90
2023-01-28T02:02:36.793Z,5.47
2023-01-28T02:05:23.754Z,5.40
2023-01-28T02:08:23.456Z,5.50
2023-01-28T02:11:11.772Z,5.27
2023-01-28T02:14:03.361Z,5.30
2023-01-28T02:16:50.447Z,5.27
2023-01-28T02:19:42.814Z,5.27
2023-01-28T02:22:35.826Z,5.70
2023-01-28T02:25:52.282Z,5.47
2023-01-28T02:28:55.419Z,5.27
2023-01-28T02:32:19.804Z,5.13
2023-01-28T02:35:18.148Z,5.97
2023-01-28T02:38:30.291Z,5.90
2023-01-28T02:41:28.557Z,5.87
2023-01-28T02:44:15.546Z,5.53
2023-01-28T02:47:21.151Z,5.80
2023-01-28T02:50:17.393Z,6.17
2023-01-28T02:53:43.810Z,6.13
2023-01-28T02:56:45.728Z,6.10
2023-01-28T03:00:19.010Z,5.43
2023-01-28T03:03:35.625Z,5.77
2023-01-28T03:06:28.812Z,5.43
2023-01-28T03:09:23.123Z,5.70
2023-01-28T03:12:37.376Z,6.43
2023-01-28T03:15:58.369Z,5.63
2023-01-28T03:19:09.763Z,6.40
2023-01-28T03:22:16.682Z,6.23
2023-01-28T03:25:22.700Z,6.77
2023-01-28T03:28:34.441Z,5.83
2023-01-28T03:31:42.716Z,6.00
2023-01-28T03:34:50.715Z,6.63
2023-01-28T03:37:37.961Z,6.30
2023-01-28T03:40:57.842Z,5.70
2023-01-28T03:43:45.475Z,6.50
2023-01-28T03:46:32.744Z,6.43
2023-01-28T03:49:19.704Z,6.40
2023-01-28T03:52:07.002Z,6.33
2023-01-28T03:54:54.402Z,6.93
2023-01-28T03:57:41.968Z,6.70
2023-01-28T04:00:29.486Z,6.53
2023-01-28T04:03:19.445Z,6.60
2023-01-28T04:06:16.399Z,6.77
2023-01-28T04:09:15.543Z,7.20
2023-01-28T04:12:25.246Z,7.00
2023-01-28T04:15:16.547Z,6.20
2023-01-28T04:18:05.783Z,6.87
2023-01-28T04:20:54.624Z,8.00
2023-01-28T04:23:41.698Z,7.77
2023-01-28T04:26:30.618Z,7.07
2023-01-28T04:29:17.849Z,7.23
2023-01-28T04:32:05.180Z,7.40
2023-01-28T04:35:08.567Z,7.00
2023-01-28T04:38:18.427Z,7.40
2023-01-28T04:41:28.535Z,7.30
2023-01-28T04:44:20.478Z,7.13
2023-01-28T04:47:16.478Z,7.30
2023-01-28T04:50:22.465Z,7.47
2023-01-28T04:53:47.916Z,7.50
2023-01-28T04:56:46.862Z,7.27
2023-01-28T04:59:34.263Z,6.80
2023-01-28T05:02:21.994Z,8.20
2023-01-28T05:05:09.825Z,7.13
2023-01-28T05:08:15.304Z,7.63
2023-01-28T05:11:02.361Z,7.37
2023-01-28T05:13:50.289Z,7.03
2023-01-28T05:16:38.833Z,6.87
2023-01-28T05:19:26.505Z,7.27
2023-01-28T05:22:13.523Z,7.30
2023-01-28T05:25:04.663Z,6.87
2023-01-28T05:27:52.501Z,7.17
2023-01-28T05:30:39.627Z,8.00
2023-01-28T05:33:26.757Z,7.40
2023-01-28T05:36:14.048Z,6.97
2023-01-28T05:39:01.788Z,6.87
2023-01-28T05:41:49.322Z,6.80
2023-01-28T05:44:37.886Z,7.50
2023-01-28T05:47:35.446Z,7.93
2023-01-28T05:50:39.412Z,7.37
2023-01-28T05:53:38.069Z,7.47
2023-01-28T05:56:25.908Z,7.10
2023-01-28T05:59:13.429Z,6.60
2023-01-28T06:02:02.796Z,7.43
2023-01-28T06:04:49.776Z,7.20
2023-01-28T06:07:37.645Z,8.00
2023-01-28T06:10:25.535Z,7.17
2023-01-28T06:13:12.674Z,7.10
2023-01-28T06:16:15.596Z,8.00
2023-01-28T06:19:20.328Z,7.20
2023-01-28T06:22:07.489Z,7.37
2023-01-28T06:24:54.444Z,7.10
2023-01-28T06:27:41.407Z,6.33
2023-01-28T06:30:28.349Z,6.80
2023-01-28T06:33:15.565Z,7.03
2023-01-28T06:36:03.972Z,7.83
2023-01-28T06:38:50.899Z,7.57
2023-01-28T06:41:37.888Z,7.13
2023-01-28T06:44:24.958Z,6.40
2023-01-28T06:47:11.930Z,8.47
2023-01-28T06:49:58.877Z,7.87
2023-01-28T06:52:46.212Z,8.47
2023-01-28T06:55:33.199Z,6.97
2023-01-28T06:58:20.776Z,7.27
2023-01-28T07:01:07.695Z,6.80
2023-01-28T07:03:54.624Z,7.00
2023-01-28T07:06:41.555Z,7.83
2023-01-28T07:09:28.487Z,7.30
2023-01-28T07:12:15.676Z,8.10
2023-01-28T07:15:02.665Z,7.83
2023-01-28T07:17:49.675Z,8.47
2023-01-28T07:20:36.674Z,8.17
2023-01-28T07:23:23.785Z,7.93
2023-01-28T07:26:10.705Z,8.60
2023-01-28T07:28:57.642Z,8.40
2023-01-28T07:31:44.607Z,7.97
2023-01-28T07:34:31.626Z,8.50
2023-01-28T07:37:18.590Z,8.90
2023-01-28T07:40:06.067Z,8.77
2023-01-28T07:42:55.254Z,8.73
2023-01-28T07:45:42.581Z,9.00
2023-01-28T07:48:29.531Z,9.57
2023-01-28T07:51:16.980Z,9.10
2023-01-28T07:54:04.059Z,9.63
2023-01-28T07:56:51.047Z,8.30
2023-01-28T07:59:37.983Z,8.83
2023-01-28T08:02:25.115Z,8.53
2023-01-28T08:05:12.147Z,9.40
2023-01-28T08:07:59.138Z,10.43
2023-01-28T08:10:46.343Z,10.40
2023-01-28T08:13:33.361Z,9.67
2023-01-28T08:16:20.352Z,9.50
2023-01-28T08:19:07.244Z,9.47
2023-01-28T08:21:54.193Z,8.83
2023-01-28T08:24:41.100Z,8.80
2023-01-28T08:27:28.040Z,9.07
2023-01-28T08:30:15.486Z,9.40
2023-01-28T08:33:02.639Z,9.20
2023-01-28T08:35:49.592Z,8.67
2023-01-28T08:38:36.515Z,18.13
2023-01-28T08:41:24.030Z,14.10
2023-01-28T08:44:10.956Z,10.87
2023-01-28T08:46:57.872Z,9.40
2023-01-28T08:49:44.783Z,10.07
2023-01-28T08:52:31.684Z,9.27
2023-01-28T08:55:19.199Z,9.13
2023-01-28T08:58:08.074Z,9.57
2023-01-28T09:00:55.002Z,9.13
2023-01-28T09:03:41.972Z,8.70
2023-01-28T09:06:28.897Z,8.70
2023-01-28T09:09:15.814Z,9.70
2023-01-28T09:12:02.866Z,9.20
2023-01-28T09:14:49.794Z,9.20
2023-01-28T09:17:36.778Z,8.40
2023-01-28T09:20:23.747Z,8.50
2023-01-28T09:23:11.256Z,9.47
2023-01-28T09:26:01.732Z,8.97
2023-01-28T09:28:48.666Z,9.30
2023-01-28T09:31:35.657Z,9.27
2023-01-28T09:34:22.625Z,9.40
2023-01-28T09:37:09.900Z,8.87
2023-01-28T09:39:57.073Z,8.40
2023-01-28T09:43:08.507Z,10.07
2023-01-28T09:46:02.682Z,9.47
2023-01-28T09:48:53.420Z,14.30
2023-01-28T09:51:50.074Z,26.00
2023-01-28T09:54:46.955Z,22.33
2023-01-28T09:57:45.550Z,37.37
2023-01-28T10:00:42.243Z,33.43
2023-01-28T10:03:54.625Z,22.97
2023-01-28T10:06:50.517Z,17.50
2023-01-28T10:09:57.483Z,11.63
2023-01-28T10:13:07.576Z,10.90
2023-01-28T10:16:00.710Z,12.70
2023-01-28T10:19:18.461Z,11.10
2023-01-28T10:22:30.218Z,12.07
2023-01-28T10:25:22.749Z,12.60
2023-01-28T10:28:18.929Z,12.43
2023-01-28T10:31:12.501Z,11.57
2023-01-28T10:34:00.588Z,12.40
2023-01-28T10:36:48.556Z,10.67
2023-01-28T10:39:35.541Z,10.83
2023-01-28T10:42:35.274Z,13.43
2023-01-28T10:45:38.630Z,12.33
2023-01-28T10:48:46.066Z,13.73
2023-01-28T10:51:36.102Z,13.03
2023-01-28T10:54:28.238Z,13.20
2023-01-28T10:57:18.960Z,14.07
2023-01-28T11:00:23.661Z,13.17
2023-01-28T11:03:18.937Z,16.80
2023-01-28T11:06:06.173Z,15.77
2023-01-28T11:08:53.378Z,15.70
2023-01-28T11:11:40.285Z,14.40
2023-01-28T11:14:27.915Z,14.13
2023-01-28T11:17:18.258Z,16.73
2023-01-28T11:20:19.589Z,16.57
2023-01-28T11:23:06.789Z,15.30
2023-01-28T11:26:06.644Z,16.60
2023-01-28T11:28:54.120Z,12.87
2023-01-28T11:31:44.196Z,12.43
2023-01-28T11:34:34.721Z,11.17
2023-01-28T11:37:23.155Z,11.30
2023-01-28T11:40:21.442Z,11.20
2023-01-28T11:43:09.223Z,11.27
2023-01-28T11:46:13.064Z,11.37
2023-01-28T11:49:20.273Z,11.73
2023-01-28T11:52:24.328Z,11.20
2023-01-28T11:56:00.689Z,11.20
2023-01-28T11:59:19.392Z,12.50
2023-01-28T12:02:18.244Z,11.23
2023-01-28T12:05:18.825Z,12.03
2023-01-28T12:08:20.933Z,11.27
2023-01-28T12:11:48.611Z,11.13
2023-01-28T12:14:53.269Z,11.07
2023-01-28T12:17:51.515Z,11.10
2023-01-28T12:21:13.950Z,11.07
2023-01-28T12:24:22.236Z,10.67
2023-01-28T12:27:30.647Z,11.67
2023-01-28T12:30:55.507Z,11.57
2023-01-28T12:34:03.193Z,10.27
2023-01-28T12:37:16.695Z,11.17
2023-01-28T12:40:12.630Z,10.17
2023-01-28T12:43:09.971Z,11.23
2023-01-28T12:46:09.489Z,9.80
2023-01-28T12:49:09.534Z,9.33
2023-01-28T12:52:16.364Z,9.67
2023-01-28T12:55:15.453Z,10.47
2023-01-28T12:58:04.340Z,9.80
2023-01-28T13:00:56.632Z,11.00
2023-01-28T13:03:49.492Z,10.53
2023-01-28T13:06:50.621Z,10.20
2023-01-28T13:09:44.092Z,10.63
2023-01-28T13:12:32.600Z,10.17
2023-01-28T13:15:20.802Z,10.23
2023-01-28T13:18:07.716Z,10.03
2023-01-28T13:20:55.818Z,9.70
2023-01-28T13:23:46.364Z,9.60
2023-01-28T13:26:43.892Z,10.07
2023-01-28T13:29:33.498Z,8.40
2023-01-28T13:32:35.983Z,9.23
2023-01-28T13:35:35.412Z,10.47
2023-01-28T13:38:24.578Z,9.67
2023-01-28T13:41:11.512Z,10.40
2023-01-28T13:43:58.756Z,9.13
2023-01-28T13:46:45.869Z,8.37
2023-01-28T13:49:33.955Z,8.90
2023-01-28T13:53:19.682Z,8.97
2023-01-28T13:56:17.799Z,10.03
2023-01-28T13:59:13.915Z,9.20
2023-01-28T14:02:34.707Z,9.30
2023-01-28T14:05:27.818Z,9.03
2023-01-28T14:08:49.824Z,9.90
2023-01-28T14:12:14.631Z,8.90
2023-01-28T14:15:30.626Z,10.30
2023-01-28T14:18:28.060Z,8.90
2023-01-28T14:21:22.340Z,9.00
2023-01-28T14:24:17.142Z,8.67
2023-01-28T14:27:32.604Z,7.90
2023-01-28T14:30:33.030Z,8.33
2023-01-28T14:33:22.306Z,7.90
2023-01-28T14:36:12.389Z,7.83
2023-01-28T14:38:59.575Z,9.17
2023-01-28T14:41:50.012Z,8.67
2023-01-28T14:44:40.723Z,9.57
2023-01-28T14:47:39.854Z,9.10
2023-01-28T14:51:06.072Z,7.87
2023-01-28T14:54:08.023Z,8.60
2023-01-28T14:57:01.203Z,7.90
2023-01-28T15:00:01.645Z,8.77
2023-01-28T15:02:48.841Z,9.07
2023-01-28T15:05:35.945Z,9.87
2023-01-28T15:08:23.364Z,8.47
2023-01-28T15:11:17.953Z,8.60
2023-01-28T15:14:13.799Z,7.63
2023-01-28T15:17:01.743Z,8.83
2023-01-28T15:19:48.901Z,8.57
2023-01-28T15:22:35.911Z,10.13
2023-01-28T15:25:26.411Z,12.00
2023-01-28T15:28:23.060Z,7.87
2023-01-28T15:31:22.030Z,7.07
2023-01-28T15:34:20.053Z,6.47
2023-01-28T15:37:10.883Z,5.80
2023-01-28T15:40:02.652Z,5.67
2023-01-28T15:42:50.874Z,6.60
2023-01-28T15:45:37.847Z,6.53
2023-01-28T15:48:31.737Z,5.63
2023-01-28T15:51:23.327Z,6.40
2023-01-28T15:54:11.015Z,4.87
2023-01-28T15:57:09.315Z,5.20
2023-01-28T16:00:14.609Z,5.27
2023-01-28T16:03:08.987Z,5.17
2023-01-28T16:06:21.994Z,5.87
2023-01-28T16:09:23.552Z,5.63
2023-01-28T16:12:13.862Z,5.23
2023-01-28T16:15:02.378Z,6.13
2023-01-28T16:17:52.061Z,5.57
2023-01-28T16:20:39.056Z,5.33
2023-01-28T16:23:28.082Z,5.20
2023-01-28T16:26:24.683Z,6.93
2023-01-28T16:29:15.237Z,6.90
2023-01-28T16:32:03.761Z,5.60
2023-01-28T16:34:50.817Z,4.90
2023-01-28T16:37:40.583Z,5.43
2023-01-28T16:40:28.758Z,5.00
2023-01-28T16:43:17.150Z,5.17
2023-01-28T16:46:07.905Z,5.23
2023-01-28T16:48:56.222Z,5.83
2023-01-28T16:51:44.007Z,5.80
2023-01-28T16:54:31.898Z,5.90
2023-01-28T16:57:21.808Z,8.10
2023-01-28T17:00:23.255Z,15.93
2023-01-28T17:03:12.471Z,21.73
2023-01-28T17:05:59.394Z,20.30
2023-01-28T17:08:46.467Z,11.93
2023-01-28T17:11:34.227Z,6.73
2023-01-28T17:14:21.276Z,5.63
2023-01-28T17:17:08.201Z,5.00
2023-01-28T17:19:55.652Z,5.43
2023-01-28T17:22:42.584Z,9.30
2023-01-28T17:25:29.502Z,8.20
2023-01-28T17:28:16.947Z,6.40
2023-01-28T17:31:12.479Z,4.90
2023-01-28T17:33:59.813Z,4.30
2023-01-28T17:36:46.724Z,4.17
2023-01-28T17:39:33.649Z,3.97
2023-01-28T17:42:20.543Z,3.80
2023-01-28T17:45:07.938Z,4.27
2023-01-28T17:47:54.873Z,3.77
2023-01-28T17:50:41.796Z,3.37
2023-01-28T17:53:28.795Z,3.93
2023-01-28T17:56:21.575Z,3.57
2023-01-28T17:59:10.268Z,3.67
2023-01-28T18:01:57.382Z,3.40
2023-01-28T18:04:44.419Z,3.77
2023-01-28T18:07:31.382Z,3.13
2023-01-28T18:10:18.982Z,3.83
2023-01-28T18:13:05.940Z,4.10
2023-01-28T18:15:52.863Z,3.30
2023-01-28T18:18:39.847Z,3.30
2023-01-28T18:21:52.165Z,3.63
2023-01-28T18:24:39.821Z,3.57
2023-01-28T18:27:26.964Z,4.17
2023-01-28T18:30:16.306Z,3.27
2023-01-28T18:33:03.327Z,3.60
2023-01-28T18:35:50.310Z,3.40
2023-01-28T18:38:37.243Z,3.63
2023-01-28T18:41:24.151Z,3.23
2023-01-28T18:44:13.176Z,3.67
2023-01-28T18:47:00.175Z,3.13
2023-01-28T18:49:47.191Z,3.43
2023-01-28T18:52:34.099Z,3.60
2023-01-28T18:55:21.582Z,3.60
2023-01-28T18:58:08.600Z,3.60
2023-01-28T19:00:55.628Z,3.53
2023-01-28T19:03:42.579Z,3.57
2023-01-28T19:06:31.300Z,3.57
2023-01-28T19:09:18.244Z,3.73
2023-01-28T19:12:05.480Z,3.90
2023-01-28T19:14:52.431Z,4.40
2023-01-28T19:17:39.369Z,4.17
2023-01-28T19:20:26.316Z,3.40
2023-01-28T19:23:13.903Z,4.50
2023-01-28T19:26:06.788Z,3.93
2023-01-28T19:28:54.515Z,3.90
2023-01-28T19:31:41.994Z,3.40
2023-01-28T19:34:29.269Z,4.03
2023-01-28T19:37:16.948Z,3.80
2023-01-28T19:40:04.141Z,3.80
2023-01-28T19:42:54.244Z,3.17
2023-01-28T19:45:41.233Z,3.40
2023-01-28T19:48:28.469Z,3.53
2023-01-28T19:51:16.134Z,3.77
2023-01-28T19:54:03.190Z,3.50
2023-01-28T19:56:50.115Z,3.23
2023-01-28T19:59:37.180Z,3.33
2023-01-28T20:02:24.121Z,3.70
2023-01-28T20:05:11.132Z,3.40
2023-01-28T20:07:58.043Z,3.67
2023-01-28T20:10:44.939Z,3.20
2023-01-28T20:13:32.996Z,3.17
2023-01-28T20:16:23.113Z,3.77
2023-01-28T20:19:18.882Z,3.43
2023-01-28T20:22:05.879Z,3.93
2023-01-28T20:24:57.094Z,3.63
2023-01-28T20:27:44.051Z,4.07
2023-01-28T20:30:31.111Z,4.30
2023-01-28T20:33:18.924Z,4.43
2023-01-28T20:36:08.637Z,4.03
2023-01-28T20:38:55.587Z,3.80
2023-01-28T20:41:42.577Z,3.87
2023-01-28T20:44:32.043Z,4.27
2023-01-28T20:47:18.997Z,4.20
2023-01-28T20:50:06.188Z,4.60
2023-01-28T20:52:53.315Z,4.90
2023-01-28T20:55:40.244Z,4.63
2023-01-28T20:58:28.084Z,4.00
2023-01-28T21:01:19.864Z,3.70
2023-01-28T21:04:10.526Z,3.67
2023-01-28T21:06:57.641Z,3.60
2023-01-28T21:09:44.620Z,3.47
2023-01-28T21:12:31.624Z,3.30
2023-01-28T21:15:18.553Z,4.03
2023-01-28T21:18:06.369Z,3.07
2023-01-28T21:20:54.862Z,3.47
2023-01-28T21:23:41.848Z,3.30
2023-01-28T21:26:28.946Z,3.50
2023-01-28T21:29:17.325Z,3.13
2023-01-28T21:32:04.512Z,4.67
2023-01-28T21:34:51.465Z,3.33
2023-01-28T21:37:41.230Z,3.33
2023-01-28T21:40:28.204Z,3.40
2023-01-28T21:43:15.121Z,4.03
2023-01-28T21:46:03.004Z,3.53
2023-01-28T21:48:57.696Z,3.30
2023-01-28T21:51:47.547Z,3.07
2023-01-28T21:54:35.740Z,3.40
2023-01-28T21:57:22.707Z,3.23
2023-01-28T22:00:10.354Z,3.30
2023-01-28T22:03:00.018Z,3.63
2023-01-28T22:05:54.594Z,3.30
2023-01-28T22:08:41.573Z,3.33
2023-01-28T22:11:28.542Z,3.70
2023-01-28T22:14:15.513Z,3.67
2023-01-28T22:17:02.566Z,3.60
2023-01-28T22:19:49.555Z,3.53
2023-01-28T22:22:36.545Z,3.50
2023-01-28T22:25:23.553Z,3.60
2023-01-28T22:28:10.492Z,3.60
2023-01-28T22:31:07.108Z,3.83
2023-01-28T22:33:54.167Z,3.33
2023-01-28T22:36:41.109Z,2.87
2023-01-28T22:39:28.077Z,3.63
2023-01-28T22:42:15.026Z,3.20
2023-01-28T22:45:01.928Z,3.10
2023-01-28T22:47:48.957Z,3.17
2023-01-28T22:50:36.920Z,2.93
2023-01-28T22:53:23.944Z,3.20
2023-01-28T22:56:10.881Z,3.10
2023-01-28T22:59:00.889Z,2.73
2023-01-28T23:01:47.858Z,2.80
2023-01-28T23:04:34.785Z,2.63
2023-01-28T23:07:21.739Z,2.70
2023-01-28T23:10:09.486Z,2.60
2023-01-28T23:12:56.413Z,3.13
2023-01-28T23:16:03.773Z,3.27
2023-01-28T23:19:09.132Z,3.60
2023-01-28T23:22:14.529Z,3.37
2023-01-28T23:25:01.595Z,2.77
2023-01-28T23:27:48.624Z,2.80
2023-01-28T23:30:36.730Z,3.23
2023-01-28T23:33:24.489Z,3.20
2023-01-28T23:36:11.512Z,2.87
2023-01-28T23:38:58.579Z,2.90
2023-01-28T23:41:45.493Z,3.10
2023-01-28T23:44:32.477Z,3.23
2023-01-28T23:47:19.431Z,3.20
2023-01-28T23:50:07.171Z,3.20
2023-01-28T23:52:54.112Z,3.40
2023-01-28T23:55:41.091Z,2.93
2023-01-28T23:58:42.519Z,2.87
